sensor_id;sensor_type;location;lat;lon;timestamp;temperature;humidity
58983;DHT22;44771;49.982;8.560;2023-04-03T00:00:20;3.20;99.90
58983;DHT22;44771;49.982;8.560;2023-04-03T00:05:23;3.30;99.90
58983;DHT22;44771;49.982;8.560;2023-04-03T00:10:25;3.40;99.90
58983;DHT22;44771;49.982;8.560;2023-04-03T00:15:26;3.30;99.90
58983;DHT22;44771;49.982;8.560;2023-04-03T00:20:29;3.40;99.90
58983;DHT22;44771;49.982;8.560;2023-04-03T00:25:31;3.30;99.90
58983;DHT22;44771;49.982;8.560;2023-04-03T00:30:33;3.20;99.90
58983;DHT22;44771;49.982;8.560;2023-04-03T00:35:37;3.20;99.90
58983;DHT22;44771;49.982;8.560;2023-04-03T00:40:42;3.10;99.90
58983;DHT22;44771;49.982;8.560;2023-04-03T00:45:45;3.10;99.90
58983;DHT22;44771;49.982;8.560;2023-04-03T00:50:49;3.10;99.90
58983;DHT22;44771;49.982;8.560;2023-04-03T00:55:51;3.20;99.90
58983;DHT22;44771;49.982;8.560;2023-04-03T01:00:55;3.20;99.90
58983;DHT22;44771;49.982;8.560;2023-04-03T01:06:00;3.20;99.90
58983;DHT22;44771;49.982;8.560;2023-04-03T01:11:02;3.30;99.90
58983;DHT22;44771;49.982;8.560;2023-04-03T01:16:05;3.40;99.90
58983;DHT22;44771;49.982;8.560;2023-04-03T01:21:45;3.30;99.90
58983;DHT22;44771;49.982;8.560;2023-04-03T01:26:51;3.30;99.90
58983;DHT22;44771;49.982;8.560;2023-04-03T01:31:55;3.20;99.90
58983;DHT22;44771;49.982;8.560;2023-04-03T01:36:57;3.30;99.90
58983;DHT22;44771;49.982;8.560;2023-04-03T01:41:59;3.20;99.90
58983;DHT22;44771;49.982;8.560;2023-04-03T01:47:02;3.30;99.90
58983;DHT22;44771;49.982;8.560;2023-04-03T01:52:06;3.20;99.90
58983;DHT22;44771;49.982;8.560;2023-04-03T01:57:08;3.20;99.90
58983;DHT22;44771;49.982;8.560;2023-04-03T02:02:11;3.20;99.90
58983;DHT22;44771;49.982;8.560;2023-04-03T02:07:12;3.20;99.90
58983;DHT22;44771;49.982;8.560;2023-04-03T02:12:14;3.10;99.90
58983;DHT22;44771;49.982;8.560;2023-04-03T02:17:17;3.10;99.90
58983;DHT22;44771;49.982;8.560;2023-04-03T02:22:19;3.10;99.90
58983;DHT22;44771;49.982;8.560;2023-04-03T02:27:21;3.10;99.90
58983;DHT22;44771;49.982;8.560;2023-04-03T02:32:24;3.10;99.90
58983;DHT22;44771;49.982;8.560;2023-04-03T02:37:26;3.10;99.90
58983;DHT22;44771;49.982;8.560;2023-04-03T02:42:28;3.10;99.90
58983;DHT22;44771;49.982;8.560;2023-04-03T02:47:31;3.10;99.90
58983;DHT22;44771;49.982;8.560;2023-04-03T02:52:32;3.30;99.90
58983;DHT22;44771;49.982;8.560;2023-04-03T02:57:34;3.20;99.90
58983;DHT22;44771;49.982;8.560;2023-04-03T03:02:37;3.20;99.90
58983;DHT22;44771;49.982;8.560;2023-04-03T03:07:39;3.20;99.90
58983;DHT22;44771;49.982;8.560;2023-04-03T03:12:41;3.10;99.90
58983;DHT22;44771;49.982;8.560;2023-04-03T03:17:44;3.10;99.90
58983;DHT22;44771;49.982;8.560;2023-04-03T03:22:45;3.10;99.90
58983;DHT22;44771;49.982;8.560;2023-04-03T03:27:47;3.10;99.90
58983;DHT22;44771;49.982;8.560;2023-04-03T03:32:50;3.00;99.90
58983;DHT22;44771;49.982;8.560;2023-04-03T03:37:52;2.90;99.90
58983;DHT22;44771;49.982;8.560;2023-04-03T03:42:54;2.90;99.90
58983;DHT22;44771;49.982;8.560;2023-04-03T03:47:57;2.90;99.90
58983;DHT22;44771;49.982;8.560;2023-04-03T03:52:59;3.00;99.90
58983;DHT22;44771;49.982;8.560;2023-04-03T03:58:00;3.00;99.90
58983;DHT22;44771;49.982;8.560;2023-04-03T04:03:04;3.10;99.90
58983;DHT22;44771;49.982;8.560;2023-04-03T04:08:05;3.20;99.90
58983;DHT22;44771;49.982;8.560;2023-04-03T04:13:08;3.20;99.90
58983;DHT22;44771;49.982;8.560;2023-04-03T04:18:11;3.10;99.90
58983;DHT22;44771;49.982;8.560;2023-04-03T04:23:13;3.20;99.90
58983;DHT22;44771;49.982;8.560;2023-04-03T04:28:15;3.10;99.90
58983;DHT22;44771;49.982;8.560;2023-04-03T04:33:18;3.10;99.90
58983;DHT22;44771;49.982;8.560;2023-04-03T04:38:25;3.00;99.90
58983;DHT22;44771;49.982;8.560;2023-04-03T04:43:26;2.90;99.90
58983;DHT22;44771;49.982;8.560;2023-04-03T04:48:29;2.80;99.90
58983;DHT22;44771;49.982;8.560;2023-04-03T04:53:33;2.70;99.90
58983;DHT22;44771;49.982;8.560;2023-04-03T04:58:35;2.60;99.90
58983;DHT22;44771;49.982;8.560;2023-04-03T05:03:38;2.40;99.90
58983;DHT22;44771;49.982;8.560;2023-04-03T05:08:40;2.40;99.90
58983;DHT22;44771;49.982;8.560;2023-04-03T05:13:41;2.30;99.90
58983;DHT22;44771;49.982;8.560;2023-04-03T05:18:45;2.30;99.90
58983;DHT22;44771;49.982;8.560;2023-04-03T05:23:46;2.20;99.90
58983;DHT22;44771;49.982;8.560;2023-04-03T05:28:48;2.30;99.90
58983;DHT22;44771;49.982;8.560;2023-04-03T05:33:51;2.20;99.90
58983;DHT22;44771;49.982;8.560;2023-04-03T05:38:53;2.20;99.90
58983;DHT22;44771;49.982;8.560;2023-04-03T05:43:55;2.20;99.90
58983;DHT22;44771;49.982;8.560;2023-04-03T05:48:58;2.20;99.90
58983;DHT22;44771;49.982;8.560;2023-04-03T05:54:04;2.30;99.90
58983;DHT22;44771;49.982;8.560;2023-04-03T05:59:07;2.20;99.90
58983;DHT22;44771;49.982;8.560;2023-04-03T06:04:11;2.20;99.90
58983;DHT22;44771;49.982;8.560;2023-04-03T06:09:13;2.10;99.90
58983;DHT22;44771;49.982;8.560;2023-04-03T06:14:15;2.10;99.90
58983;DHT22;44771;49.982;8.560;2023-04-03T06:19:18;2.20;99.90
58983;DHT22;44771;49.982;8.560;2023-04-03T06:24:20;2.30;99.90
58983;DHT22;44771;49.982;8.560;2023-04-03T06:29:23;2.20;99.90
58983;DHT22;44771;49.982;8.560;2023-04-03T06:34:26;2.20;99.90
58983;DHT22;44771;49.982;8.560;2023-04-03T06:39:28;2.30;99.90
58983;DHT22;44771;49.982;8.560;2023-04-03T06:44:29;2.40;99.90
58983;DHT22;44771;49.982;8.560;2023-04-03T06:49:32;2.40;99.90
58983;DHT22;44771;49.982;8.560;2023-04-03T06:54:34;2.50;99.90
58983;DHT22;44771;49.982;8.560;2023-04-03T06:59:36;2.60;99.90
58983;DHT22;44771;49.982;8.560;2023-04-03T07:04:39;2.60;99.90
58983;DHT22;44771;49.982;8.560;2023-04-03T07:09:41;2.80;99.90
58983;DHT22;44771;49.982;8.560;2023-04-03T07:14:45;2.80;99.90
58983;DHT22;44771;49.982;8.560;2023-04-03T07:19:48;2.90;99.90
58983;DHT22;44771;49.982;8.560;2023-04-03T07:24:50;3.10;99.90
58983;DHT22;44771;49.982;8.560;2023-04-03T07:29:52;3.20;99.90
58983;DHT22;44771;49.982;8.560;2023-04-03T07:34:57;3.20;99.90
58983;DHT22;44771;49.982;8.560;2023-04-03T07:39:59;3.30;99.90
58983;DHT22;44771;49.982;8.560;2023-04-03T07:45:00;3.40;99.90
58983;DHT22;44771;49.982;8.560;2023-04-03T07:50:04;3.40;99.90
58983;DHT22;44771;49.982;8.560;2023-04-03T07:55:07;3.60;99.90
58983;DHT22;44771;49.982;8.560;2023-04-03T08:00:10;3.70;99.90
58983;DHT22;44771;49.982;8.560;2023-04-03T08:05:13;3.80;99.90
58983;DHT22;44771;49.982;8.560;2023-04-03T08:10:15;3.90;99.90
58983;DHT22;44771;49.982;8.560;2023-04-03T08:15:17;4.30;99.90
58983;DHT22;44771;49.982;8.560;2023-04-03T08:20:20;4.20;99.90
58983;DHT22;44771;49.982;8.560;2023-04-03T08:25:22;4.40;99.90
58983;DHT22;44771;49.982;8.560;2023-04-03T08:30:24;4.40;99.90
58983;DHT22;44771;49.982;8.560;2023-04-03T08:35:27;4.60;99.90
58983;DHT22;44771;49.982;8.560;2023-04-03T08:40:28;4.70;99.90
58983;DHT22;44771;49.982;8.560;2023-04-03T08:45:42;5.10;99.90
58983;DHT22;44771;49.982;8.560;2023-04-03T08:50:48;5.00;99.90
58983;DHT22;44771;49.982;8.560;2023-04-03T08:55:54;5.70;99.90
58983;DHT22;44771;49.982;8.560;2023-04-03T09:00:58;5.80;99.90
58983;DHT22;44771;49.982;8.560;2023-04-03T09:06:04;5.90;98.00
58983;DHT22;44771;49.982;8.560;2023-04-03T09:11:13;5.70;97.40
58983;DHT22;44771;49.982;8.560;2023-04-03T09:16:25;5.70;97.40
58983;DHT22;44771;49.982;8.560;2023-04-03T09:21:36;5.80;96.30
58983;DHT22;44771;49.982;8.560;2023-04-03T09:26:42;6.10;96.50
58983;DHT22;44771;49.982;8.560;2023-04-03T09:31:47;5.90;96.80
58983;DHT22;44771;49.982;8.560;2023-04-03T09:36:52;6.50;97.00
58983;DHT22;44771;49.982;8.560;2023-04-03T09:41:55;6.20;96.60
58983;DHT22;44771;49.982;8.560;2023-04-03T09:46:57;6.10;96.80
58983;DHT22;44771;49.982;8.560;2023-04-03T09:52:18;5.90;95.00
58983;DHT22;44771;49.982;8.560;2023-04-03T09:57:20;5.50;96.70
58983;DHT22;44771;49.982;8.560;2023-04-03T10:02:34;6.10;96.90
58983;DHT22;44771;49.982;8.560;2023-04-03T10:07:38;6.30;98.10
58983;DHT22;44771;49.982;8.560;2023-04-03T10:12:43;6.10;94.60
58983;DHT22;44771;49.982;8.560;2023-04-03T10:17:54;5.60;95.60
58983;DHT22;44771;49.982;8.560;2023-04-03T10:23:12;6.10;94.90
58983;DHT22;44771;49.982;8.560;2023-04-03T10:28:23;6.00;97.00
58983;DHT22;44771;49.982;8.560;2023-04-03T10:33:36;6.20;96.00
58983;DHT22;44771;49.982;8.560;2023-04-03T10:38:48;6.30;93.60
58983;DHT22;44771;49.982;8.560;2023-04-03T10:43:59;6.30;94.50
58983;DHT22;44771;49.982;8.560;2023-04-03T10:49:15;6.80;94.50
58983;DHT22;44771;49.982;8.560;2023-04-03T10:54:24;7.30;93.00
58983;DHT22;44771;49.982;8.560;2023-04-03T10:59:30;8.10;89.00
58983;DHT22;44771;49.982;8.560;2023-04-03T11:04:36;6.70;92.90
58983;DHT22;44771;49.982;8.560;2023-04-03T11:09:43;6.60;95.20
58983;DHT22;44771;49.982;8.560;2023-04-03T11:14:47;6.90;92.50
58983;DHT22;44771;49.982;8.560;2023-04-03T11:19:52;7.20;92.60
58983;DHT22;44771;49.982;8.560;2023-04-03T11:25:04;6.90;91.10
58983;DHT22;44771;49.982;8.560;2023-04-03T11:30:14;6.70;90.80
58983;DHT22;44771;49.982;8.560;2023-04-03T11:35:19;7.00;89.60
58983;DHT22;44771;49.982;8.560;2023-04-03T11:40:26;6.90;87.50
58983;DHT22;44771;49.982;8.560;2023-04-03T11:45:36;6.60;85.20
58983;DHT22;44771;49.982;8.560;2023-04-03T11:50:44;7.70;86.80
58983;DHT22;44771;49.982;8.560;2023-04-03T11:56:03;8.20;78.90
58983;DHT22;44771;49.982;8.560;2023-04-03T12:01:08;7.20;76.40
58983;DHT22;44771;49.982;8.560;2023-04-03T12:12:00;7.00;79.80
58983;DHT22;44771;49.982;8.560;2023-04-03T12:17:03;7.90;73.30
58983;DHT22;44771;49.982;8.560;2023-04-03T12:22:13;8.60;70.60
58983;DHT22;44771;49.982;8.560;2023-04-03T12:27:29;9.40;73.80
58983;DHT22;44771;49.982;8.560;2023-04-03T12:33:04;7.70;75.10
58983;DHT22;44771;49.982;8.560;2023-04-03T12:38:32;7.90;73.60
58983;DHT22;44771;49.982;8.560;2023-04-03T12:43:47;7.90;69.70
58983;DHT22;44771;49.982;8.560;2023-04-03T12:48:53;8.70;80.30
58983;DHT22;44771;49.982;8.560;2023-04-03T12:54:00;8.10;71.30
58983;DHT22;44771;49.982;8.560;2023-04-03T12:59:16;8.50;73.30
58983;DHT22;44771;49.982;8.560;2023-04-03T13:04:18;8.80;75.80
58983;DHT22;44771;49.982;8.560;2023-04-03T13:09:22;8.40;70.00
58983;DHT22;44771;49.982;8.560;2023-04-03T13:14:27;8.00;71.60
58983;DHT22;44771;49.982;8.560;2023-04-03T13:19:29;7.70;70.40
58983;DHT22;44771;49.982;8.560;2023-04-03T13:24:33;7.50;70.20
58983;DHT22;44771;49.982;8.560;2023-04-03T13:29:38;8.40;69.20
58983;DHT22;44771;49.982;8.560;2023-04-03T13:34:42;8.70;70.60
58983;DHT22;44771;49.982;8.560;2023-04-03T13:39:58;7.60;70.30
58983;DHT22;44771;49.982;8.560;2023-04-03T13:45:17;8.40;70.50
58983;DHT22;44771;49.982;8.560;2023-04-03T13:50:21;8.60;67.40
58983;DHT22;44771;49.982;8.560;2023-04-03T13:55:25;8.00;69.70
58983;DHT22;44771;49.982;8.560;2023-04-03T14:00:36;8.50;71.60
58983;DHT22;44771;49.982;8.560;2023-04-03T14:05:38;8.60;72.70
58983;DHT22;44771;49.982;8.560;2023-04-03T14:10:40;8.20;69.30
58983;DHT22;44771;49.982;8.560;2023-04-03T14:15:44;8.30;67.70
58983;DHT22;44771;49.982;8.560;2023-04-03T14:20:47;8.50;68.80
58983;DHT22;44771;49.982;8.560;2023-04-03T14:25:49;8.50;64.30
58983;DHT22;44771;49.982;8.560;2023-04-03T14:30:53;8.50;65.70
58983;DHT22;44771;49.982;8.560;2023-04-03T14:35:55;8.40;65.60
58983;DHT22;44771;49.982;8.560;2023-04-03T14:40:58;8.20;71.80
58983;DHT22;44771;49.982;8.560;2023-04-03T14:46:19;7.90;66.80
58983;DHT22;44771;49.982;8.560;2023-04-03T14:51:25;8.30;69.00
58983;DHT22;44771;49.982;8.560;2023-04-03T14:56:28;8.20;65.30
58983;DHT22;44771;49.982;8.560;2023-04-03T15:01:31;7.90;67.80
58983;DHT22;44771;49.982;8.560;2023-04-03T15:06:34;7.90;69.00
58983;DHT22;44771;49.982;8.560;2023-04-03T15:11:35;8.00;71.40
58983;DHT22;44771;49.982;8.560;2023-04-03T15:16:39;7.90;69.20
58983;DHT22;44771;49.982;8.560;2023-04-03T15:21:40;7.70;68.70
58983;DHT22;44771;49.982;8.560;2023-04-03T15:26:42;7.40;70.90
58983;DHT22;44771;49.982;8.560;2023-04-03T15:31:45;7.60;70.90
58983;DHT22;44771;49.982;8.560;2023-04-03T15:36:47;7.40;70.00
58983;DHT22;44771;49.982;8.560;2023-04-03T15:41:49;7.30;68.20
58983;DHT22;44771;49.982;8.560;2023-04-03T15:46:52;7.50;70.00
58983;DHT22;44771;49.982;8.560;2023-04-03T15:51:54;7.30;70.80
58983;DHT22;44771;49.982;8.560;2023-04-03T15:56:56;7.20;67.70
58983;DHT22;44771;49.982;8.560;2023-04-03T16:01:59;7.30;67.80
58983;DHT22;44771;49.982;8.560;2023-04-03T16:07:02;7.10;70.60
58983;DHT22;44771;49.982;8.560;2023-04-03T16:12:04;7.00;67.30
58983;DHT22;44771;49.982;8.560;2023-04-03T16:17:07;7.00;69.70
58983;DHT22;44771;49.982;8.560;2023-04-03T16:22:09;7.00;70.10
58983;DHT22;44771;49.982;8.560;2023-04-03T16:27:11;6.80;67.70
58983;DHT22;44771;49.982;8.560;2023-04-03T16:32:14;6.70;67.50
58983;DHT22;44771;49.982;8.560;2023-04-03T16:37:16;6.60;70.20
58983;DHT22;44771;49.982;8.560;2023-04-03T16:42:18;6.60;68.90
58983;DHT22;44771;49.982;8.560;2023-04-03T16:47:21;6.50;68.60
58983;DHT22;44771;49.982;8.560;2023-04-03T16:52:23;6.40;69.80
58983;DHT22;44771;49.982;8.560;2023-04-03T16:57:25;6.20;68.60
58983;DHT22;44771;49.982;8.560;2023-04-03T17:02:28;6.10;67.90
58983;DHT22;44771;49.982;8.560;2023-04-03T17:07:30;6.00;68.80
58983;DHT22;44771;49.982;8.560;2023-04-03T17:12:37;5.90;70.20
58983;DHT22;44771;49.982;8.560;2023-04-03T17:17:40;5.80;70.40
58983;DHT22;44771;49.982;8.560;2023-04-03T17:22:42;5.80;69.50
58983;DHT22;44771;49.982;8.560;2023-04-03T17:27:44;5.60;72.50
58983;DHT22;44771;49.982;8.560;2023-04-03T17:32:47;5.60;69.50
58983;DHT22;44771;49.982;8.560;2023-04-03T17:37:49;5.50;69.30
58983;DHT22;44771;49.982;8.560;2023-04-03T17:42:51;5.40;69.90
58983;DHT22;44771;49.982;8.560;2023-04-03T17:47:54;5.30;69.90
58983;DHT22;44771;49.982;8.560;2023-04-03T17:52:56;5.20;70.10
58983;DHT22;44771;49.982;8.560;2023-04-03T17:57:58;5.10;71.00
58983;DHT22;44771;49.982;8.560;2023-04-03T18:03:01;5.00;70.70
58983;DHT22;44771;49.982;8.560;2023-04-03T18:08:03;5.00;70.30
58983;DHT22;44771;49.982;8.560;2023-04-03T18:13:06;4.80;71.40
58983;DHT22;44771;49.982;8.560;2023-04-03T18:18:09;4.60;71.80
58983;DHT22;44771;49.982;8.560;2023-04-03T18:23:11;4.50;73.20
58983;DHT22;44771;49.982;8.560;2023-04-03T18:28:12;4.40;73.60
58983;DHT22;44771;49.982;8.560;2023-04-03T18:33:16;4.20;73.20
58983;DHT22;44771;49.982;8.560;2023-04-03T18:38:17;4.10;73.20
58983;DHT22;44771;49.982;8.560;2023-04-03T18:43:19;4.00;74.00
58983;DHT22;44771;49.982;8.560;2023-04-03T18:48:22;4.00;73.50
58983;DHT22;44771;49.982;8.560;2023-04-03T18:53:24;3.90;74.90
58983;DHT22;44771;49.982;8.560;2023-04-03T18:58:26;3.80;76.00
58983;DHT22;44771;49.982;8.560;2023-04-03T19:03:29;3.70;76.70
58983;DHT22;44771;49.982;8.560;2023-04-03T19:08:32;3.60;76.90
58983;DHT22;44771;49.982;8.560;2023-04-03T19:13:34;3.70;76.30
58983;DHT22;44771;49.982;8.560;2023-04-03T19:18:37;3.60;76.70
58983;DHT22;44771;49.982;8.560;2023-04-03T19:23:41;3.40;78.30
58983;DHT22;44771;49.982;8.560;2023-04-03T19:28:43;3.20;79.00
58983;DHT22;44771;49.982;8.560;2023-04-03T19:33:47;3.30;79.10
58983;DHT22;44771;49.982;8.560;2023-04-03T19:38:48;3.30;78.30
58983;DHT22;44771;49.982;8.560;2023-04-03T19:43:51;3.20;79.60
58983;DHT22;44771;49.982;8.560;2023-04-03T19:48:55;3.00;79.90
58983;DHT22;44771;49.982;8.560;2023-04-03T19:53:57;2.80;80.00
58983;DHT22;44771;49.982;8.560;2023-04-03T19:58:59;2.80;82.10
58983;DHT22;44771;49.982;8.560;2023-04-03T20:04:02;2.90;81.60
58983;DHT22;44771;49.982;8.560;2023-04-03T20:09:04;2.60;82.60
58983;DHT22;44771;49.982;8.560;2023-04-03T20:14:06;2.50;83.70
58983;DHT22;44771;49.982;8.560;2023-04-03T20:19:10;2.60;82.20
58983;DHT22;44771;49.982;8.560;2023-04-03T20:24:11;2.60;82.70
58983;DHT22;44771;49.982;8.560;2023-04-03T20:29:16;2.40;83.70
58983;DHT22;44771;49.982;8.560;2023-04-03T20:34:19;2.30;84.60
58983;DHT22;44771;49.982;8.560;2023-04-03T20:39:21;2.20;85.20
58983;DHT22;44771;49.982;8.560;2023-04-03T20:44:22;2.10;85.80
58983;DHT22;44771;49.982;8.560;2023-04-03T20:49:26;1.90;88.00
58983;DHT22;44771;49.982;8.560;2023-04-03T20:54:27;1.70;89.30
58983;DHT22;44771;49.982;8.560;2023-04-03T20:59:29;1.80;89.80
58983;DHT22;44771;49.982;8.560;2023-04-03T21:04:36;1.60;90.20
58983;DHT22;44771;49.982;8.560;2023-04-03T21:20:49;1.50;91.00
58983;DHT22;44771;49.982;8.560;2023-04-03T21:25:51;1.30;92.40
58983;DHT22;44771;49.982;8.560;2023-04-03T21:30:53;1.20;92.70
58983;DHT22;44771;49.982;8.560;2023-04-03T21:35:55;1.20;93.20
58983;DHT22;44771;49.982;8.560;2023-04-03T21:40:58;1.10;93.50
58983;DHT22;44771;49.982;8.560;2023-04-03T21:45:59;1.10;94.30
58983;DHT22;44771;49.982;8.560;2023-04-03T21:51:03;0.90;94.50
58983;DHT22;44771;49.982;8.560;2023-04-03T21:56:05;0.90;95.50
58983;DHT22;44771;49.982;8.560;2023-04-03T22:01:08;0.70;96.80
58983;DHT22;44771;49.982;8.560;2023-04-03T22:06:12;0.50;98.00
58983;DHT22;44771;49.982;8.560;2023-04-03T22:11:15;0.40;99.50
58983;DHT22;44771;49.982;8.560;2023-04-03T22:16:16;0.30;99.90
58983;DHT22;44771;49.982;8.560;2023-04-03T22:21:20;0.20;99.90
58983;DHT22;44771;49.982;8.560;2023-04-03T22:26:21;0.10;99.90
58983;DHT22;44771;49.982;8.560;2023-04-03T22:31:23;-0.10;99.90
58983;DHT22;44771;49.982;8.560;2023-04-03T22:36:26;-0.30;99.90
58983;DHT22;44771;49.982;8.560;2023-04-03T22:41:28;-0.40;99.90
58983;DHT22;44771;49.982;8.560;2023-04-03T22:46:29;-0.50;99.90
58983;DHT22;44771;49.982;8.560;2023-04-03T22:51:32;-0.50;99.90
58983;DHT22;44771;49.982;8.560;2023-04-03T22:56:34;-0.50;99.90
58983;DHT22;44771;49.982;8.560;2023-04-03T23:01:36;-0.60;99.90
58983;DHT22;44771;49.982;8.560;2023-04-03T23:06:41;-0.60;99.90
58983;DHT22;44771;49.982;8.560;2023-04-03T23:11:43;-0.70;99.90
58983;DHT22;44771;49.982;8.560;2023-04-03T23:16:44;-0.70;99.90
58983;DHT22;44771;49.982;8.560;2023-04-03T23:21:47;-0.90;99.90
58983;DHT22;44771;49.982;8.560;2023-04-03T23:26:49;-1.00;99.90
58983;DHT22;44771;49.982;8.560;2023-04-03T23:31:51;-1.00;99.90
58983;DHT22;44771;49.982;8.560;2023-04-03T23:36:54;-0.90;99.90
58983;DHT22;44771;49.982;8.560;2023-04-03T23:41:56;-1.10;99.90
58983;DHT22;44771;49.982;8.560;2023-04-03T23:46:57;-1.10;99.90
58983;DHT22;44771;49.982;8.560;2023-04-03T23:52:00;-1.00;99.90
58983;DHT22;44771;49.982;8.560;2023-04-03T23:57:02;-1.10;99.90
